Time;durP1;ratioP1;P1;durP2;ratioP2;P2;SDS_P1;SDS_P2;PMS_P1;PMS_P2;Temp;Humidity;BMP_temperature;BMP_pressure;BME280_temperature;BME280_humidity;BME280_pressure;Samples;Min_cycle;Max_cycle;Signal;HPM_P1;HPM_P2
2023/08/16 00:00:14;;;;;;;11.80;8.87;;;28.40;51.70;;;;;;5134691;27;20495;-53
2023/08/16 00:02:40;;;;;;;9.50;8.60;;;28.40;51.80;;;;;;5135870;27;20175;-54
2023/08/16 00:05:06;;;;;;;9.17;8.37;;;28.40;51.80;;;;;;5135684;27;20484;-56
2023/08/16 00:07:34;;;;;;;9.57;8.60;;;28.40;51.90;;;;;;5135929;27;20848;-54
2023/08/16 00:10:01;;;;;;;9.00;8.10;;;28.40;51.80;;;;;;5135914;27;20487;-56
2023/08/16 00:12:26;;;;;;;9.97;8.17;;;28.40;51.70;;;;;;5135765;27;20411;-53
2023/08/16 00:14:52;;;;;;;10.20;9.20;;;28.40;51.70;;;;;;5135725;27;20504;-53
2023/08/16 00:17:18;;;;;;;8.57;7.73;;;28.40;51.70;;;;;;5135702;27;20733;-54
2023/08/16 00:19:44;;;;;;;9.70;8.77;;;28.40;52.50;;;;;;5135670;27;20180;-53
2023/08/16 00:22:10;;;;;;;9.10;8.20;;;28.40;51.90;;;;;;5135528;27;20170;-53
2023/08/16 00:24:36;;;;;;;9.80;8.50;;;28.40;51.90;;;;;;5135464;27;20542;-57
2023/08/16 00:27:03;;;;;;;9.23;8.07;;;28.40;52.00;;;;;;5135524;27;20809;-53
2023/08/16 00:29:28;;;;;;;8.17;7.40;;;28.40;52.00;;;;;;5134175;27;20640;-55
2023/08/16 00:31:56;;;;;;;12.40;10.43;;;28.40;52.00;;;;;;5134036;27;20430;-53
2023/08/16 00:34:22;;;;;;;11.20;7.90;;;28.30;52.00;;;;;;5135035;27;20649;-52
2023/08/16 00:36:48;;;;;;;10.83;8.57;;;28.30;52.00;;;;;;5135288;27;20480;-56
2023/08/16 00:39:14;;;;;;;9.07;8.03;;;28.30;52.10;;;;;;5133998;27;20312;-51
2023/08/16 00:41:40;;;;;;;11.87;8.10;;;28.30;52.10;;;;;;5135174;27;20692;-55
2023/08/16 00:44:05;;;;;;;8.57;7.80;;;28.20;52.20;;;;;;5135005;27;20243;-53
2023/08/16 00:46:31;;;;;;;9.10;8.20;;;28.20;52.20;;;;;;5134886;27;20705;-57
2023/08/16 00:48:58;;;;;;;9.73;8.10;;;28.20;52.20;;;;;;5135161;27;20177;-53
2023/08/16 00:51:24;;;;;;;13.67;9.47;;;28.20;52.20;;;;;;5134469;27;20409;-56
2023/08/16 00:53:50;;;;;;;10.10;8.67;;;28.20;52.20;;;;;;5135084;27;20400;-54
2023/08/16 00:56:16;;;;;;;11.33;8.70;;;28.20;52.10;;;;;;5134681;27;20937;-53
2023/08/16 00:58:43;;;;;;;10.73;8.70;;;28.20;52.00;;;;;;5134904;27;20411;-55
2023/08/16 01:01:10;;;;;;;9.13;7.57;;;28.20;52.20;;;;;;5134700;27;20404;-55
2023/08/16 01:03:36;;;;;;;8.97;8.13;;;28.10;52.20;;;;;;5133600;27;20821;-53
2023/08/16 01:06:03;;;;;;;8.77;7.97;;;28.20;52.30;;;;;;5134287;27;20543;-55
2023/08/16 01:08:30;;;;;;;8.30;7.60;;;28.20;52.30;;;;;;5135006;27;20905;-53
2023/08/16 01:11:12;;;;;;;8.40;7.40;;;28.10;52.30;;;;;;5134599;27;20396;-51
2023/08/16 01:14:01;;;;;;;10.17;8.73;;;28.20;52.20;;;;;;5134559;27;20422;-56
2023/08/16 01:16:28;;;;;;;8.50;7.70;;;28.20;52.10;;;;;;5134512;27;20460;-54
2023/08/16 01:18:56;;;;;;;9.27;8.37;;;28.10;52.10;;;;;;5134466;27;20404;-53
2023/08/16 01:21:23;;;;;;;9.37;8.47;;;28.00;52.10;;;;;;5134718;27;20432;-55
2023/08/16 01:24:04;;;;;;;13.60;9.40;;;27.90;51.80;;;;;;5134408;27;20406;-52
2023/08/16 01:26:33;;;;;;;9.13;8.30;;;27.90;51.70;;;;;;5132883;27;20460;-57
2023/08/16 01:29:01;;;;;;;9.97;8.90;;;27.80;52.10;;;;;;5134572;27;20424;-55
2023/08/16 01:31:27;;;;;;;9.40;8.57;;;27.80;52.30;;;;;;5134506;27;20417;-53
2023/08/16 01:33:53;;;;;;;11.00;9.23;;;27.70;52.50;;;;;;5134047;27;20400;-53
2023/08/16 01:36:19;;;;;;;10.27;7.57;;;27.70;52.30;;;;;;5133945;27;20520;-56
2023/08/16 01:38:45;;;;;;;9.70;8.40;;;27.70;52.20;;;;;;5134225;27;20436;-55
2023/08/16 01:41:18;;;;;;;10.50;8.40;;;27.70;52.20;;;;;;5132741;27;20410;-52
2023/08/16 01:43:46;;;;;;;9.23;8.23;;;27.70;52.50;;;;;;5134026;27;20400;-52
2023/08/16 01:46:13;;;;;;;11.73;8.90;;;27.70;52.50;;;;;;5133585;27;20589;-55
2023/08/16 01:48:39;;;;;;;9.17;8.37;;;27.80;52.50;;;;;;5132569;27;20406;-52
2023/08/16 01:51:06;;;;;;;9.40;8.37;;;27.80;52.60;;;;;;5133754;27;20405;-53
2023/08/16 01:53:34;;;;;;;10.50;8.87;;;27.80;52.60;;;;;;5133769;27;20433;-55
2023/08/16 01:56:00;;;;;;;10.87;9.77;;;27.70;52.60;;;;;;5133441;27;20425;-53
2023/08/16 01:58:26;;;;;;;10.67;9.13;;;27.70;52.70;;;;;;5133745;27;20761;-54
2023/08/16 02:00:51;;;;;;;11.07;8.93;;;27.70;52.70;;;;;;5133583;27;20401;-54
2023/08/16 02:03:17;;;;;;;10.33;8.80;;;27.80;52.90;;;;;;5132795;27;20164;-51
2023/08/16 02:05:43;;;;;;;10.13;9.10;;;27.70;52.90;;;;;;5133120;27;20190;-54
2023/08/16 02:08:10;;;;;;;8.10;7.40;;;27.70;52.90;;;;;;5132259;27;20413;-56
2023/08/16 02:10:37;;;;;;;10.67;9.57;;;27.70;53.00;;;;;;5133517;27;20977;-52
2023/08/16 02:13:03;;;;;;;9.60;8.70;;;27.70;52.90;;;;;;5133492;27;20419;-55
2023/08/16 02:15:29;;;;;;;10.77;9.30;;;27.80;53.00;;;;;;5133547;27;20978;-57
2023/08/16 02:17:55;;;;;;;17.30;9.50;;;27.80;53.00;;;;;;5133398;27;20412;-53
2023/08/16 02:20:21;;;;;;;9.63;8.70;;;27.70;53.00;;;;;;5133335;27;20167;-56
2023/08/16 02:22:47;;;;;;;12.13;9.37;;;27.70;53.00;;;;;;5133580;27;20901;-53
2023/08/16 02:25:13;;;;;;;9.87;8.87;;;27.80;53.10;;;;;;5130275;27;20190;-54
2023/08/16 02:27:39;;;;;;;11.17;9.00;;;27.80;53.10;;;;;;5133155;27;20489;-55
2023/08/16 02:30:06;;;;;;;9.20;8.30;;;27.80;53.00;;;;;;5133285;27;20178;-53
2023/08/16 02:32:33;;;;;;;7.40;6.70;;;27.80;52.90;;;;;;5133072;27;20912;-55
2023/08/16 02:34:59;;;;;;;8.63;7.40;;;27.70;52.80;;;;;;5132705;27;21001;-55
2023/08/16 02:37:25;;;;;;;6.90;5.87;;;27.70;52.80;;;;;;5133090;27;20408;-52
2023/08/16 02:39:52;;;;;;;6.67;5.97;;;27.70;52.90;;;;;;5133184;27;20465;-52
2023/08/16 02:42:18;;;;;;;8.23;6.47;;;27.70;52.80;;;;;;5133025;27;20422;-55
2023/08/16 02:44:43;;;;;;;7.03;5.40;;;27.70;52.80;;;;;;5132803;27;20428;-52
2023/08/16 02:47:09;;;;;;;6.20;5.60;;;27.70;52.70;;;;;;5132879;27;20805;-52
2023/08/16 02:49:35;;;;;;;6.30;5.33;;;27.60;52.70;;;;;;5133033;28;20405;-55
2023/08/16 02:52:01;;;;;;;5.77;5.27;;;27.60;52.70;;;;;;5131694;28;20171;-51
2023/08/16 02:54:27;;;;;;;5.47;4.77;;;27.60;52.80;;;;;;5132672;27;20202;-57
2023/08/16 02:56:52;;;;;;;7.60;5.30;;;27.60;52.80;;;;;;5132908;27;20179;-56
2023/08/16 02:59:18;;;;;;;5.40;4.90;;;27.60;52.60;;;;;;5132959;27;20262;-52
2023/08/16 03:01:44;;;;;;;5.63;5.07;;;27.60;52.60;;;;;;5132859;27;20644;-52
2023/08/16 03:04:10;;;;;;;7.97;5.30;;;27.60;52.60;;;;;;5132586;27;20670;-57
2023/08/16 03:06:36;;;;;;;5.57;4.27;;;27.50;52.50;;;;;;5132654;28;20210;-53
2023/08/16 03:09:01;;;;;;;6.07;4.93;;;27.60;52.40;;;;;;5132831;27;20404;-51
2023/08/16 03:11:27;;;;;;;4.83;4.43;;;27.50;52.30;;;;;;5131464;28;20981;-53
2023/08/16 03:13:53;;;;;;;5.80;3.93;;;27.50;52.40;;;;;;5132817;27;20250;-56
2023/08/16 03:16:19;;;;;;;6.30;3.83;;;27.50;52.50;;;;;;5135845;27;20606;-51
2023/08/16 03:18:44;;;;;;;4.43;3.80;;;27.50;52.50;;;;;;5136797;27;20206;-55
2023/08/16 03:21:10;;;;;;;6.47;4.43;;;27.50;52.40;;;;;;5136811;27;20170;-57
2023/08/16 03:23:36;;;;;;;4.90;4.40;;;27.50;52.30;;;;;;5135495;27;20670;-52
2023/08/16 03:26:02;;;;;;;4.40;4.00;;;27.40;52.40;;;;;;5136376;27;20190;-53
2023/08/16 03:28:28;;;;;;;5.70;4.17;;;27.50;52.40;;;;;;5136591;27;20178;-57
2023/08/16 03:30:54;;;;;;;5.67;5.17;;;27.50;52.40;;;;;;5135262;27;20467;-55
2023/08/16 03:33:20;;;;;;;8.27;4.20;;;27.50;52.40;;;;;;5136707;27;20431;-52
2023/08/16 03:35:46;;;;;;;5.80;4.50;;;27.50;52.50;;;;;;5136084;27;20482;-56
2023/08/16 03:38:11;;;;;;;5.27;4.50;;;27.50;52.40;;;;;;5136510;27;20198;-52
2023/08/16 03:40:37;;;;;;;6.00;4.30;;;27.50;52.40;;;;;;5136403;27;20601;-53
2023/08/16 03:43:03;;;;;;;5.00;4.23;;;27.50;52.40;;;;;;5136398;27;20404;-54
2023/08/16 03:45:29;;;;;;;4.50;4.07;;;27.50;52.40;;;;;;5136309;27;20202;-53
2023/08/16 03:47:56;;;;;;;4.70;4.30;;;27.50;52.30;;;;;;5136349;27;20940;-56
2023/08/16 03:50:22;;;;;;;5.93;4.00;;;27.40;52.30;;;;;;5136282;27;20171;-57
2023/08/16 03:52:48;;;;;;;5.03;4.33;;;27.50;52.30;;;;;;5136190;27;20455;-53
2023/08/16 03:55:14;;;;;;;5.17;4.67;;;27.50;52.40;;;;;;5135806;27;20948;-54
2023/08/16 03:57:40;;;;;;;5.47;4.97;;;27.50;52.20;;;;;;5136200;27;20500;-56
2023/08/16 04:00:11;;;;;;;5.90;4.97;;;27.50;52.10;;;;;;5136088;27;20830;-56
2023/08/16 04:02:38;;;;;;;6.87;4.23;;;27.50;52.30;;;;;;5134896;27;20885;-51
2023/08/16 04:05:12;;;;;;;5.13;4.30;;;27.40;52.50;;;;;;5135967;27;20792;-54
2023/08/16 04:07:38;;;;;;;5.53;4.07;;;27.50;52.60;;;;;;5135846;27;20481;-53
2023/08/16 04:10:05;;;;;;;5.23;4.40;;;27.50;52.60;;;;;;5135860;27;20472;-52
2023/08/16 04:12:31;;;;;;;5.60;4.53;;;27.50;52.40;;;;;;5135716;27;20409;-54
2023/08/16 04:14:57;;;;;;;6.10;4.67;;;27.50;52.20;;;;;;5135365;27;20465;-56
2023/08/16 04:17:23;;;;;;;4.80;4.40;;;27.50;52.30;;;;;;5135676;27;20166;-54
2023/08/16 04:19:49;;;;;;;5.00;4.50;;;27.50;52.30;;;;;;5135729;27;20166;-53
2023/08/16 04:22:14;;;;;;;6.37;5.60;;;27.50;52.50;;;;;;5135807;27;20495;-56
2023/08/16 04:24:40;;;;;;;8.33;5.57;;;27.50;52.50;;;;;;5135354;27;20902;-58
2023/08/16 04:27:07;;;;;;;6.37;5.33;;;27.50;52.50;;;;;;5134436;27;20282;-52
2023/08/16 04:29:33;;;;;;;6.20;5.60;;;27.50;52.40;;;;;;5135381;27;20253;-58
2023/08/16 04:31:58;;;;;;;6.07;5.57;;;27.40;52.60;;;;;;5135493;27;20489;-56
2023/08/16 04:34:24;;;;;;;6.07;4.90;;;27.40;52.70;;;;;;5135252;27;20533;-53
2023/08/16 04:36:50;;;;;;;5.60;4.80;;;27.50;52.60;;;;;;5135725;27;20186;-55
2023/08/16 04:39:16;;;;;;;9.03;5.60;;;27.40;52.60;;;;;;5135343;27;20177;-56
2023/08/16 04:41:42;;;;;;;7.57;5.40;;;27.50;52.70;;;;;;5135182;27;20183;-52
2023/08/16 04:44:08;;;;;;;6.57;5.87;;;27.50;52.80;;;;;;5134828;27;20416;-52
2023/08/16 04:46:34;;;;;;;6.70;5.60;;;27.40;52.80;;;;;;5135024;27;20202;-55
2023/08/16 04:48:59;;;;;;;6.00;5.40;;;27.50;52.70;;;;;;5135319;27;20713;-59
2023/08/16 04:51:25;;;;;;;7.17;6.47;;;27.50;52.70;;;;;;5135107;27;20577;-53
2023/08/16 04:53:52;;;;;;;7.30;6.27;;;27.50;52.60;;;;;;5134990;27;20178;-52
2023/08/16 04:56:18;;;;;;;8.47;6.10;;;27.50;52.80;;;;;;5134567;27;20810;-57
2023/08/16 04:58:44;;;;;;;6.00;5.40;;;27.50;52.90;;;;;;5133701;27;20182;-56
2023/08/16 05:01:10;;;;;;;6.10;5.50;;;27.50;53.00;;;;;;5134824;27;20423;-52
2023/08/16 05:03:36;;;;;;;6.20;5.60;;;27.50;53.00;;;;;;5134811;27;20265;-52
2023/08/16 05:06:03;;;;;;;8.07;5.93;;;27.50;53.00;;;;;;5133169;27;20191;-59
2023/08/16 05:08:30;;;;;;;7.10;5.77;;;27.50;53.00;;;;;;5133373;27;20178;-55
2023/08/16 05:10:57;;;;;;;6.20;5.60;;;27.50;52.80;;;;;;5134675;27;20393;-53
2023/08/16 05:13:23;;;;;;;9.57;6.67;;;27.50;52.60;;;;;;5134549;27;20408;-53
2023/08/16 05:15:49;;;;;;;8.00;6.40;;;27.50;52.60;;;;;;5134253;27;20435;-56
2023/08/16 05:18:15;;;;;;;7.67;6.30;;;27.50;52.80;;;;;;5134753;27;20404;-53
2023/08/16 05:20:41;;;;;;;7.37;6.23;;;27.50;52.60;;;;;;5134559;27;20531;-58
2023/08/16 05:23:06;;;;;;;8.83;5.20;;;27.50;52.60;;;;;;5134492;27;20397;-56
2023/08/16 05:25:32;;;;;;;7.80;5.30;;;27.50;52.80;;;;;;5134131;27;20228;-53
2023/08/16 05:27:58;;;;;;;9.57;5.83;;;27.50;52.90;;;;;;5134527;27;20688;-57
2023/08/16 05:30:25;;;;;;;6.27;5.67;;;27.50;52.80;;;;;;5134349;27;20174;-53
2023/08/16 05:32:54;;;;;;;10.43;6.50;;;27.60;52.90;;;;;;5134272;27;20396;-53
2023/08/16 05:35:20;;;;;;;6.17;5.60;;;27.60;52.90;;;;;;5133839;27;20932;-57
2023/08/16 05:37:46;;;;;;;11.17;5.87;;;27.50;52.60;;;;;;5134109;27;20496;-53
2023/08/16 05:40:12;;;;;;;7.37;6.33;;;27.50;52.40;;;;;;5134034;27;20270;-53
2023/08/16 05:42:38;;;;;;;9.10;6.83;;;27.50;52.30;;;;;;5134134;27;20186;-58
2023/08/16 05:45:04;;;;;;;6.90;6.27;;;27.50;52.30;;;;;;5133817;27;20432;-59
2023/08/16 05:47:30;;;;;;;6.20;5.60;;;27.50;52.40;;;;;;5134030;27;20448;-53
2023/08/16 05:49:57;;;;;;;6.40;5.53;;;27.50;52.40;;;;;;5133906;27;20408;-54
2023/08/16 05:52:23;;;;;;;5.60;5.10;;;27.50;52.40;;;;;;5132554;27;20423;-56
2023/08/16 05:54:49;;;;;;;7.03;5.70;;;27.50;52.40;;;;;;5133785;27;20424;-54
2023/08/16 05:57:15;;;;;;;9.63;5.90;;;27.50;52.50;;;;;;5134026;27;20174;-58
2023/08/16 05:59:41;;;;;;;6.10;5.60;;;27.60;52.50;;;;;;5132774;27;20908;-57
2023/08/16 06:02:06;;;;;;;7.77;5.10;;;27.60;52.40;;;;;;5132436;27;20178;-50
2023/08/16 06:04:36;;;;;;;6.90;5.90;;;27.60;52.20;;;;;;5133393;27;20539;-53
2023/08/16 06:07:03;;;;;;;6.23;5.63;;;27.60;52.50;;;;;;5132260;27;20483;-53
2023/08/16 06:09:30;;;;;;;7.80;5.90;;;27.60;52.60;;;;;;5133502;27;20889;-51
2023/08/16 06:11:56;;;;;;;8.73;6.20;;;27.60;52.60;;;;;;5133723;27;20468;-56
2023/08/16 06:14:22;;;;;;;6.70;6.10;;;27.60;52.50;;;;;;5133477;27;20469;-53
2023/08/16 06:16:48;;;;;;;6.50;5.70;;;27.60;52.40;;;;;;5133499;27;20795;-51
2023/08/16 06:19:15;;;;;;;6.37;5.83;;;27.60;52.40;;;;;;5133476;27;20446;-54
2023/08/16 06:21:41;;;;;;;6.07;5.53;;;27.60;52.40;;;;;;5133351;27;20169;-57
2023/08/16 06:24:08;;;;;;;6.97;6.17;;;27.60;52.20;;;;;;5133112;27;20420;-54
2023/08/16 06:26:34;;;;;;;7.03;6.20;;;27.60;52.20;;;;;;5133174;27;20464;-53
2023/08/16 06:29:00;;;;;;;8.80;6.80;;;27.50;52.20;;;;;;5133301;27;20412;-56
2023/08/16 06:31:26;;;;;;;6.50;5.93;;;27.50;52.20;;;;;;5133317;27;20641;-56
2023/08/16 06:33:52;;;;;;;8.13;6.70;;;27.50;52.10;;;;;;5133067;27;20182;-52
2023/08/16 06:36:19;;;;;;;7.93;6.47;;;27.40;52.20;;;;;;5132892;27;20815;-58
2023/08/16 06:38:45;;;;;;;6.53;5.93;;;27.50;52.30;;;;;;5133165;27;20943;-57
2023/08/16 06:41:12;;;;;;;7.07;6.23;;;27.40;52.30;;;;;;5133374;27;20412;-52
2023/08/16 06:43:38;;;;;;;8.60;5.70;;;27.40;52.30;;;;;;5133310;27;20412;-53
2023/08/16 06:46:05;;;;;;;7.77;5.77;;;27.30;52.40;;;;;;5132972;27;20851;-58
2023/08/16 06:48:31;;;;;;;9.50;6.20;;;27.30;52.60;;;;;;5133156;27;20483;-52
2023/08/16 06:50:57;;;;;;;8.80;6.87;;;27.30;52.90;;;;;;5132736;27;20431;-52
2023/08/16 06:53:23;;;;;;;8.40;6.43;;;27.30;52.60;;;;;;5132911;28;20439;-54
2023/08/16 06:55:49;;;;;;;6.40;5.80;;;27.40;52.70;;;;;;5132925;27;20972;-53
2023/08/16 06:58:14;;;;;;;7.60;6.90;;;27.40;52.90;;;;;;5132830;28;20448;-58
2023/08/16 07:00:45;;;;;;;6.10;5.50;;;27.50;52.50;;;;;;5132984;27;20212;-53
2023/08/16 07:03:11;;;;;;;9.10;7.70;;;27.40;52.40;;;;;;5132977;28;20178;-58
2023/08/16 07:05:36;;;;;;;8.00;7.20;;;27.40;52.10;;;;;;5132553;27;20862;-53
2023/08/16 07:08:03;;;;;;;7.10;6.20;;;27.40;52.30;;;;;;5132807;27;20592;-55
2023/08/16 07:10:29;;;;;;;9.53;6.90;;;27.40;52.30;;;;;;5133122;27;20170;-54
2023/08/16 07:12:55;;;;;;;7.50;6.87;;;27.40;52.20;;;;;;5132786;28;20404;-54
2023/08/16 07:15:21;;;;;;;8.53;7.73;;;27.50;52.20;;;;;;5131753;27;20439;-53
2023/08/16 07:17:46;;;;;;;7.80;6.90;;;27.40;52.30;;;;;;5132653;27;20409;-54
2023/08/16 07:20:12;;;;;;;7.17;6.47;;;27.40;52.40;;;;;;5132575;27;20178;-53
2023/08/16 07:22:38;;;;;;;6.73;6.13;;;27.50;52.40;;;;;;5132671;28;20222;-55
2023/08/16 07:25:06;;;;;;;8.33;7.47;;;27.50;52.30;;;;;;5132302;27;20652;-55
2023/08/16 07:27:33;;;;;;;7.43;6.70;;;27.50;52.10;;;;;;5132476;27;20461;-53
2023/08/16 07:29:59;;;;;;;11.87;7.50;;;27.50;52.20;;;;;;5132606;27;20407;-54
2023/08/16 07:32:25;;;;;;;9.80;6.80;;;27.60;52.20;;;;;;5132666;27;20735;-57
2023/08/16 07:34:51;;;;;;;7.83;7.10;;;27.60;52.30;;;;;;5132170;27;20475;-54
2023/08/16 07:37:18;;;;;;;7.20;6.60;;;27.60;52.20;;;;;;5132500;28;20412;-53
2023/08/16 07:39:47;;;;;;;13.40;7.50;;;27.60;52.20;;;;;;5132608;27;20414;-52
2023/08/16 07:42:13;;;;;;;8.00;7.27;;;27.70;52.10;;;;;;5132476;27;20420;-53
2023/08/16 07:44:38;;;;;;;7.70;6.90;;;27.70;52.20;;;;;;5132182;27;20434;-57
2023/08/16 07:47:05;;;;;;;10.10;7.80;;;27.70;52.10;;;;;;5132405;27;20538;-51
2023/08/16 07:49:31;;;;;;;7.80;7.10;;;27.70;52.10;;;;;;5132348;27;20400;-57
2023/08/16 07:51:57;;;;;;;7.30;6.53;;;27.80;51.70;;;;;;5132702;27;20482;-57
2023/08/16 07:54:24;;;;;;;7.20;6.40;;;27.80;51.70;;;;;;5132181;27;20404;-52
2023/08/16 07:56:53;;;;;;;7.37;6.60;;;27.80;51.70;;;;;;5132435;27;20443;-52
2023/08/16 07:59:19;;;;;;;7.60;6.90;;;27.80;51.70;;;;;;5132522;27;20491;-55
2023/08/16 08:28:42;;;;;;;7.03;6.33;;;27.90;51.50;;;;;;5115100;28;20445;-54
2023/08/16 08:31:08;;;;;;;12.13;8.43;;;28.00;52.30;;;;;;5114889;28;20393;-56
2023/08/16 08:33:34;;;;;;;7.63;7.03;;;28.20;52.00;;;;;;5114896;28;20476;-53
2023/08/16 08:36:03;;;;;;;9.33;8.53;;;28.30;52.00;;;;;;5114517;28;20692;-53
2023/08/16 08:38:29;;;;;;;8.43;7.53;;;28.40;51.50;;;;;;5114775;28;20389;-57
2023/08/16 08:41:01;;;;;;;9.57;7.43;;;28.40;51.60;;;;;;5114645;28;20401;-57
2023/08/16 08:43:32;;;;;;;11.57;7.73;;;28.50;50.90;;;;;;5114987;28;20416;-53
2023/08/16 08:45:58;;;;;;;9.30;8.27;;;28.60;50.30;;;;;;5114702;28;20424;-55
2023/08/16 08:48:26;;;;;;;8.50;7.47;;;28.60;50.40;;;;;;5114830;28;20397;-58
2023/08/16 08:50:53;;;;;;;8.23;6.80;;;28.60;50.70;;;;;;5114904;28;20480;-54
2023/08/16 08:53:24;;;;;;;7.77;7.07;;;28.70;51.20;;;;;;5114659;28;20392;-56
2023/08/16 08:55:55;;;;;;;8.37;7.67;;;28.80;51.00;;;;;;5114256;28;20409;-52
2023/08/16 08:58:22;;;;;;;7.90;7.20;;;28.90;50.60;;;;;;5114618;28;20406;-56
2023/08/16 09:00:53;;;;;;;8.80;6.53;;;29.00;51.10;;;;;;5114362;28;20476;-52
2023/08/16 09:03:23;;;;;;;7.30;6.70;;;29.00;51.10;;;;;;5114515;28;20431;-58
2023/08/16 09:05:52;;;;;;;9.17;8.30;;;29.10;51.10;;;;;;5112759;28;20425;-53
2023/08/16 09:08:22;;;;;;;9.00;8.10;;;29.10;50.40;;;;;;5114054;28;20445;-53
2023/08/16 09:10:50;;;;;;;10.30;9.30;;;29.10;50.50;;;;;;5114024;28;21343;-55
2023/08/16 09:13:18;;;;;;;8.10;6.13;;;29.10;50.70;;;;;;5113654;28;20413;-55
2023/08/16 09:15:44;;;;;;;7.77;7.00;;;29.10;50.50;;;;;;5113874;28;20421;-53
2023/08/16 09:18:14;;;;;;;8.20;7.50;;;29.10;50.40;;;;;;5114097;28;20405;-56
2023/08/16 09:20:44;;;;;;;9.37;8.53;;;29.20;50.50;;;;;;5114091;28;20257;-53
2023/08/16 09:23:19;;;;;;;6.83;6.23;;;29.20;50.20;;;;;;5114033;28;20411;-53
2023/08/16 09:25:46;;;;;;;9.57;8.67;;;29.20;50.10;;;;;;5122047;27;20443;-54
2023/08/16 09:28:13;;;;;;;9.93;7.33;;;29.10;50.00;;;;;;5125982;27;20501;-53
2023/08/16 09:30:41;;;;;;;7.87;7.13;;;29.00;49.60;;;;;;5134415;27;20839;-55
2023/08/16 09:33:10;;;;;;;7.87;7.17;;;29.00;49.70;;;;;;5134339;27;20403;-53
2023/08/16 09:35:48;;;;;;;8.20;7.37;;;29.00;49.90;;;;;;5133680;27;20444;-54
2023/08/16 09:38:18;;;;;;;9.10;8.20;;;29.00;49.70;;;;;;5132912;27;20412;-53
2023/08/16 09:40:48;;;;;;;8.00;7.20;;;29.00;49.40;;;;;;5134160;27;21092;-59
2023/08/16 09:43:13;;;;;;;8.30;7.50;;;29.00;49.80;;;;;;5134132;27;20408;-54
2023/08/16 09:45:40;;;;;;;8.33;6.97;;;29.00;49.90;;;;;;5133870;27;20421;-53
2023/08/16 09:48:09;;;;;;;8.60;7.80;;;29.10;50.20;;;;;;5133867;27;20255;-56
2023/08/16 09:50:35;;;;;;;7.17;6.47;;;29.10;50.10;;;;;;5132711;27;20444;-53
2023/08/16 09:53:11;;;;;;;9.03;7.87;;;29.20;50.20;;;;;;5133916;27;20881;-54
2023/08/16 09:55:40;;;;;;;7.60;6.90;;;29.30;49.30;;;;;;5133700;27;20423;-53
2023/08/16 09:58:11;;;;;;;8.00;6.37;;;29.30;49.30;;;;;;5132676;27;20409;-51
2023/08/16 10:00:38;;;;;;;12.30;7.80;;;29.30;49.30;;;;;;5133973;27;20420;-57
2023/08/16 10:03:04;;;;;;;10.00;6.93;;;29.40;50.20;;;;;;5133991;27;20408;-54
2023/08/16 10:05:31;;;;;;;7.40;6.70;;;29.40;49.70;;;;;;5133475;27;20424;-55
2023/08/16 10:08:01;;;;;;;8.13;7.33;;;29.50;49.30;;;;;;5133857;27;20455;-57
2023/08/16 10:10:30;;;;;;;7.63;6.73;;;29.40;49.00;;;;;;5133589;27;20483;-53
2023/08/16 10:12:56;;;;;;;7.93;7.23;;;28.80;48.80;;;;;;5133539;27;20401;-53
2023/08/16 10:15:23;;;;;;;8.93;8.03;;;29.50;48.80;;;;;;5133502;27;20885;-56
2023/08/16 10:17:52;;;;;;;7.37;6.77;;;29.50;49.10;;;;;;5133770;27;20404;-52
2023/08/16 10:20:26;;;;;;;8.03;7.27;;;29.50;49.20;;;;;;5133710;27;20408;-54
2023/08/16 10:23:01;;;;;;;7.87;7.27;;;29.50;49.10;;;;;;5133275;27;20412;-56
2023/08/16 10:25:44;;;;;;;8.93;8.03;;;29.40;47.90;;;;;;5132395;27;20908;-52
2023/08/16 10:28:10;;;;;;;7.40;6.73;;;29.40;48.40;;;;;;5133225;27;20509;-55
2023/08/16 10:30:39;;;;;;;8.53;7.10;;;29.30;48.50;;;;;;5133520;27;20791;-53
2023/08/16 10:33:18;;;;;;;8.43;7.63;;;29.30;48.90;;;;;;5133297;27;20405;-54
2023/08/16 10:35:47;;;;;;;10.60;8.50;;;29.40;49.80;;;;;;5132301;27;20446;-52
2023/08/16 10:38:12;;;;;;;7.77;6.67;;;29.30;49.70;;;;;;5124692;27;20773;-55
2023/08/16 10:40:38;;;;;;;9.00;8.07;;;29.40;50.00;;;;;;5133056;27;20408;-56
2023/08/16 10:43:06;;;;;;;7.43;6.40;;;29.40;49.30;;;;;;5133162;27;20407;-55
2023/08/16 10:45:36;;;;;;;7.27;6.40;;;29.40;49.40;;;;;;5132975;27;20222;-51
2023/08/16 10:48:18;;;;;;;8.17;7.37;;;29.40;48.50;;;;;;5132932;27;20456;-55
2023/08/16 10:50:53;;;;;;;7.73;7.03;;;29.50;48.70;;;;;;5132913;27;20396;-52
2023/08/16 10:53:19;;;;;;;7.70;7.00;;;29.40;48.30;;;;;;5133097;27;20711;-52
2023/08/16 10:55:55;;;;;;;10.33;7.50;;;29.40;48.80;;;;;;5132184;27;20446;-57
2023/08/16 10:58:23;;;;;;;7.60;7.00;;;29.50;49.40;;;;;;5125769;28;20251;-51
2023/08/16 11:00:59;;;;;;;9.30;8.40;;;29.50;49.10;;;;;;5133231;27;20416;-53
2023/08/16 11:03:32;;;;;;;6.20;5.70;;;29.60;48.90;;;;;;5133271;27;20388;-57
2023/08/16 11:06:07;;;;;;;7.43;6.73;;;29.70;50.10;;;;;;5132566;27;20464;-52
2023/08/16 11:08:33;;;;;;;7.80;7.10;;;29.80;48.10;;;;;;5131684;28;20420;-57
2023/08/16 11:11:01;;;;;;;8.70;7.90;;;29.80;48.50;;;;;;5132813;28;20429;-54
2023/08/16 11:13:28;;;;;;;8.43;7.80;;;29.90;48.10;;;;;;5132742;27;20800;-56
2023/08/16 11:15:58;;;;;;;9.27;8.47;;;30.00;48.40;;;;;;5132748;27;20415;-55
2023/08/16 11:18:33;;;;;;;8.47;7.80;;;30.00;48.50;;;;;;5132806;27;20387;-52
2023/08/16 11:20:59;;;;;;;8.20;7.60;;;30.00;48.60;;;;;;5132791;28;20392;-54
2023/08/16 11:23:32;;;;;;;10.20;9.30;;;30.00;48.30;;;;;;5132716;27;20403;-57
2023/08/16 11:26:00;;;;;;;9.47;8.57;;;30.00;47.70;;;;;;5132416;28;20423;-54
2023/08/16 11:28:27;;;;;;;9.33;8.53;;;30.00;47.60;;;;;;5132886;27;20797;-52
2023/08/16 11:30:58;;;;;;;9.47;8.60;;;30.00;48.50;;;;;;5132929;27;20442;-56
2023/08/16 11:33:30;;;;;;;11.50;8.50;;;30.00;48.90;;;;;;5132768;27;20404;-52
2023/08/16 11:35:57;;;;;;;9.20;7.87;;;30.00;48.90;;;;;;5133364;27;20447;-55
2023/08/16 11:38:23;;;;;;;9.20;8.30;;;30.00;48.30;;;;;;5136827;27;20419;-56
2023/08/16 11:40:49;;;;;;;8.07;7.27;;;30.10;48.30;;;;;;5136470;27;20909;-53
2023/08/16 11:43:15;;;;;;;8.80;8.10;;;30.10;48.60;;;;;;5136502;27;20405;-54
2023/08/16 11:45:41;;;;;;;9.07;8.17;;;30.20;48.80;;;;;;5136090;27;20989;-55
2023/08/16 11:48:07;;;;;;;9.10;8.40;;;30.30;48.40;;;;;;5136341;27;20451;-56
2023/08/16 11:50:36;;;;;;;9.37;8.47;;;30.50;48.10;;;;;;5135014;27;20460;-52
2023/08/16 11:53:04;;;;;;;9.10;8.30;;;30.60;47.30;;;;;;5136194;27;20539;-57
2023/08/16 11:55:30;;;;;;;15.57;8.63;;;30.80;47.70;;;;;;5135918;27;20434;-51
2023/08/16 11:58:08;;;;;;;9.90;8.90;;;31.00;47.00;;;;;;5136376;27;20412;-55
2023/08/16 12:00:36;;;;;;;10.83;9.60;;;31.10;46.10;;;;;;5136093;27;20403;-58
2023/08/16 12:03:11;;;;;;;9.10;8.40;;;31.10;46.10;;;;;;5135997;27;20491;-52
2023/08/16 12:05:38;;;;;;;9.80;9.00;;;31.10;45.90;;;;;;5135633;27;20502;-56
2023/08/16 12:08:06;;;;;;;9.47;8.57;;;31.00;45.00;;;;;;5135908;27;20983;-54
2023/08/16 12:10:32;;;;;;;8.90;8.00;;;31.00;46.60;;;;;;5136126;27;20411;-58
2023/08/16 12:13:09;;;;;;;9.17;8.37;;;31.00;46.10;;;;;;5136226;27;20407;-57
2023/08/16 12:15:35;;;;;;;9.80;9.00;;;31.00;46.00;;;;;;5135560;27;20424;-53
2023/08/16 12:18:01;;;;;;;9.90;9.00;;;31.00;46.00;;;;;;5135596;27;20920;-53
2023/08/16 12:20:29;;;;;;;10.47;8.80;;;31.00;45.90;;;;;;5135650;27;20404;-55
2023/08/16 12:22:55;;;;;;;9.90;8.27;;;31.00;45.70;;;;;;5135748;27;20979;-54
2023/08/16 12:25:21;;;;;;;16.60;8.80;;;31.20;46.60;;;;;;5135343;27;20515;-52
2023/08/16 12:27:47;;;;;;;9.03;8.23;;;31.30;46.40;;;;;;5135543;27;20448;-58
2023/08/16 12:30:13;;;;;;;9.30;8.50;;;31.40;45.70;;;;;;5135668;27;20403;-52
2023/08/16 12:32:39;;;;;;;9.67;8.90;;;31.50;46.30;;;;;;5135447;27;20827;-54
2023/08/16 12:35:05;;;;;;;8.80;7.97;;;31.50;45.40;;;;;;5135090;27;20718;-54
2023/08/16 12:37:31;;;;;;;9.63;8.43;;;31.70;46.00;;;;;;5135387;27;20224;-55
2023/08/16 12:39:57;;;;;;;9.40;8.50;;;31.80;45.90;;;;;;5135701;27;20766;-56
2023/08/16 12:42:23;;;;;;;8.90;8.00;;;31.90;44.70;;;;;;5135297;27;20241;-54
2023/08/16 12:44:49;;;;;;;9.13;8.23;;;32.10;44.80;;;;;;5135043;27;20455;-53
2023/08/16 12:47:15;;;;;;;7.93;7.23;;;32.30;45.30;;;;;;5134368;27;20240;-57
2023/08/16 12:49:41;;;;;;;8.90;7.60;;;32.50;44.90;;;;;;5135308;27;20243;-57
2023/08/16 12:52:06;;;;;;;9.20;8.40;;;32.50;44.50;;;;;;5135088;27;20652;-53
2023/08/16 12:54:32;;;;;;;10.13;7.93;;;32.70;42.30;;;;;;5134779;27;20174;-56
2023/08/16 12:56:58;;;;;;;9.00;8.10;;;32.70;43.10;;;;;;5133723;27;20208;-53
2023/08/16 12:59:24;;;;;;;7.90;7.20;;;32.80;43.10;;;;;;5134937;27;20198;-55
2023/08/16 13:01:50;;;;;;;9.00;8.10;;;32.80;43.80;;;;;;5134814;27;20261;-52
2023/08/16 13:04:17;;;;;;;8.40;7.70;;;32.90;43.00;;;;;;5134579;27;20949;-54
2023/08/16 13:06:43;;;;;;;7.80;7.10;;;32.80;43.10;;;;;;5134841;27;20209;-53
2023/08/16 13:09:10;;;;;;;7.77;7.17;;;32.80;42.90;;;;;;5134775;27;20920;-55
2023/08/16 13:11:37;;;;;;;7.70;7.00;;;32.70;43.20;;;;;;5133498;27;20461;-56